• Join FlightAware (Why Join?)
  • Login
  • US Flag 
04:45PM EST


 

Airport Tracker/Info


-or-


 

Live Flight TrackerFlight Track Log ✈ EJA820 ✈ 28-Apr-2013 ✈ KJZI - KCLT

Flight Track Log - Related Links

Times and Time Zones

All times are in EDT time to prevent confusion due to time zone crossing. See the EJA820 flight status page for this flight to view local times or setup timezone preferences in your user account.

Time Position Orientation Groundspeed Altitude Reporting Facility
EDT Latitude Longitude Course Direction KTS MPH feet Rate Location/Type
04:47PM 32.8544 -79.9375 North 294 338 5,700  Level Jacksonville Center
04:48PM 32.9314 -79.9300 North 289 333 8,000 2,400 Climbing Jacksonville Center
04:49PM 33.0083 -79.9178 North 284 327 10,500 2,460 Climbing Jacksonville Center
04:50PM 33.3848 -79.9686 North  Level FlightAware Approximate
04:50PM 33.0983 -79.9244 356° North 283 326 13,000  Level Jacksonville Center
04:51PM 33.4996 -79.9584 North  Level FlightAware Approximate
04:51PM 33.1864 -79.9439 350° North 302 348 14,900  Level Jacksonville Center
04:52PM 33.6145 -79.9479 North  Level FlightAware Approximate
04:52PM 33.2808 -79.9706 347° North 320 368 15,000  Level Jacksonville Center
04:53PM 33.3775 -79.9972 347° North 344 396 15,000  Level Jacksonville Center
04:54PM 33.4783 -80.0214 349° North 356 410 15,000  Level Jacksonville Center
04:55PM 33.5747 -80.0458 348° North 356 410 15,000  Level Jacksonville Center
04:56PM 33.6714 -80.0725 347° North 356 410 15,000  Level Jacksonville Center
04:57PM 33.7700 -80.0969 348° North 356 410 15,000  Level Jacksonville Center
04:58PM 33.8664 -80.1214 348° North 356 410 15,000  Level Jacksonville Center
04:59PM 33.9631 -80.1458 348° North 356 410 15,000  Level Jacksonville Center
05:00PM 34.0594 -80.1728 347° North 356 410 15,000  Level Jacksonville Center
05:01PM 34.1581 -80.1975 348° North 356 410 15,000  Level Jacksonville Center
05:02PM 34.2567 -80.2219 348° North 356 410 15,000  Level Jacksonville Center
05:03PM 34.3553 -80.2467 348° North 356 410 15,000  Level Jacksonville Center
05:04PM 34.4497 -80.2764 345° North 356 410 15,000 -660 Level Jacksonville Center
05:05PM 34.5442 -80.3014 348° North 356 410 13,700 -1,500 Descending Jacksonville Center
05:06PM 34.6333 -80.3253 348° North 301 346 11,900 -1,320 Descending Atlanta Center
05:07PM 34.6933 -80.3781 324° Northwest 256 295 11,000 -600 Descending Atlanta Center
05:08PM 34.7433 -80.4442 313° West 263 303 10,800 -840 Descending Atlanta Center
05:09PM 34.7708 -80.5239 293° West 243 280 9,400 -1,680 Descending Atlanta Center
05:10PM 34.7897 -80.6067 286° West 254 292 7,400 -1,920 Descending Atlanta Center
05:11PM 34.7817 -80.6906 263° West 247 284 5,500 -1,680 Descending Atlanta Center
05:12PM 34.7839 -80.7739 272° West 247 284 4,100 -780 Descending Atlanta Center
05:13PM 34.7881 -80.8494 274° West 225 259 4,000 -60 Descending Atlanta Center
05:14PM 34.8478 -80.8978 326° Northwest 251 289 4,000  Level Atlanta Center
05:15PM 34.9128 -80.9106 351° North 246 283 4,000  Level Atlanta Center
05:16PM 34.9817 -80.9181 355° North 243 280 4,000 -120 Level Atlanta Center
05:17PM 35.0425 -80.9236 356° North 216 249 3,800 -660 Descending Atlanta Center
05:18PM 35.0967 -80.9292 355° North 211 243 2,800 -960 Descending Atlanta Center
05:19PM 35.1406 -80.9325 356° North 134 154 2,000 -780 Descending Atlanta Center
05:20PM 35.1783 -80.9361 356° North 106 122 1,200 -720 Descending Atlanta Center
05:22PM 35.2000 -80.9333 180° South  Level FlightAware Approximate
05:29PM 35.2137 -80.9491 180° South  Level Estimated